sensor_id;sensor_type;location;lat;lon;timestamp;P1;durP1;ratioP1;P2;durP2;ratioP2
33074;SDS011;19433;51.292;6.868;2023-03-23T00:01:13;5.73;;;2.40;;
33074;SDS011;19433;51.292;6.868;2023-03-23T00:03:50;3.23;;;2.80;;
33074;SDS011;19433;51.292;6.868;2023-03-23T00:06:17;3.60;;;2.50;;
33074;SDS011;19433;51.292;6.868;2023-03-23T00:08:49;2.93;;;2.67;;
33074;SDS011;19433;51.292;6.868;2023-03-23T00:11:21;2.80;;;2.30;;
33074;SDS011;19433;51.292;6.868;2023-03-23T00:13:49;10.30;;;3.83;;
33074;SDS011;19433;51.292;6.868;2023-03-23T00:16:19;3.03;;;2.47;;
33074;SDS011;19433;51.292;6.868;2023-03-23T00:18:53;2.27;;;2.10;;
33074;SDS011;19433;51.292;6.868;2023-03-23T00:21:20;3.53;;;2.87;;
33074;SDS011;19433;51.292;6.868;2023-03-23T00:23:50;3.03;;;2.30;;
33074;SDS011;19433;51.292;6.868;2023-03-23T00:26:17;2.73;;;2.50;;
33074;SDS011;19433;51.292;6.868;2023-03-23T00:28:43;5.00;;;3.20;;
33074;SDS011;19433;51.292;6.868;2023-03-23T00:31:09;2.40;;;2.30;;
33074;SDS011;19433;51.292;6.868;2023-03-23T00:33:37;3.40;;;2.83;;
33074;SDS011;19433;51.292;6.868;2023-03-23T00:36:05;2.80;;;2.60;;
33074;SDS011;19433;51.292;6.868;2023-03-23T00:38:35;2.97;;;2.60;;
33074;SDS011;19433;51.292;6.868;2023-03-23T00:41:01;4.60;;;3.10;;
33074;SDS011;19433;51.292;6.868;2023-03-23T00:43:27;2.90;;;2.70;;
33074;SDS011;19433;51.292;6.868;2023-03-23T00:45:54;3.80;;;2.87;;
33074;SDS011;19433;51.292;6.868;2023-03-23T00:48:20;2.70;;;2.30;;
33074;SDS011;19433;51.292;6.868;2023-03-23T00:50:47;2.67;;;2.47;;
33074;SDS011;19433;51.292;6.868;2023-03-23T00:53:13;2.33;;;2.20;;
33074;SDS011;19433;51.292;6.868;2023-03-23T00:55:40;7.60;;;2.20;;
33074;SDS011;19433;51.292;6.868;2023-03-23T00:58:06;6.70;;;2.40;;
33074;SDS011;19433;51.292;6.868;2023-03-23T01:00:31;2.00;;;1.90;;
33074;SDS011;19433;51.292;6.868;2023-03-23T01:02:57;2.37;;;2.17;;
33074;SDS011;19433;51.292;6.868;2023-03-23T01:05:22;2.10;;;2.00;;
33074;SDS011;19433;51.292;6.868;2023-03-23T01:07:47;2.70;;;2.50;;
33074;SDS011;19433;51.292;6.868;2023-03-23T01:10:13;4.97;;;2.30;;
33074;SDS011;19433;51.292;6.868;2023-03-23T01:12:43;2.77;;;2.40;;
33074;SDS011;19433;51.292;6.868;2023-03-23T01:15:12;4.53;;;2.40;;
33074;SDS011;19433;51.292;6.868;2023-03-23T01:17:40;2.47;;;2.37;;
33074;SDS011;19433;51.292;6.868;2023-03-23T01:20:05;2.60;;;2.43;;
33074;SDS011;19433;51.292;6.868;2023-03-23T01:22:32;3.90;;;2.63;;
33074;SDS011;19433;51.292;6.868;2023-03-23T01:24:57;4.47;;;2.67;;
33074;SDS011;19433;51.292;6.868;2023-03-23T01:27:22;4.90;;;2.30;;
33074;SDS011;19433;51.292;6.868;2023-03-23T01:29:47;2.73;;;2.50;;
33074;SDS011;19433;51.292;6.868;2023-03-23T01:32:13;4.13;;;2.63;;
33074;SDS011;19433;51.292;6.868;2023-03-23T01:34:38;3.20;;;2.33;;
33074;SDS011;19433;51.292;6.868;2023-03-23T01:37:03;2.87;;;2.60;;
33074;SDS011;19433;51.292;6.868;2023-03-23T01:39:28;2.63;;;2.43;;
33074;SDS011;19433;51.292;6.868;2023-03-23T01:41:54;3.80;;;2.83;;
33074;SDS011;19433;51.292;6.868;2023-03-23T01:46:44;3.50;;;3.00;;
33074;SDS011;19433;51.292;6.868;2023-03-23T01:51:45;3.73;;;3.43;;
33074;SDS011;19433;51.292;6.868;2023-03-23T01:54:15;4.30;;;3.00;;
33074;SDS011;19433;51.292;6.868;2023-03-23T01:56:47;3.67;;;3.37;;
33074;SDS011;19433;51.292;6.868;2023-03-23T01:59:20;3.13;;;2.93;;
33074;SDS011;19433;51.292;6.868;2023-03-23T02:01:48;2.57;;;2.40;;
33074;SDS011;19433;51.292;6.868;2023-03-23T02:04:17;3.00;;;2.80;;
33074;SDS011;19433;51.292;6.868;2023-03-23T02:06:47;2.80;;;2.60;;
33074;SDS011;19433;51.292;6.868;2023-03-23T02:09:14;3.07;;;2.77;;
33074;SDS011;19433;51.292;6.868;2023-03-23T02:11:42;2.83;;;2.63;;
33074;SDS011;19433;51.292;6.868;2023-03-23T02:14:07;3.30;;;3.07;;
33074;SDS011;19433;51.292;6.868;2023-03-23T02:33:29;3.43;;;2.83;;
33074;SDS011;19433;51.292;6.868;2023-03-23T02:36:14;3.00;;;2.80;;
33074;SDS011;19433;51.292;6.868;2023-03-23T02:41:43;3.00;;;2.80;;
33074;SDS011;19433;51.292;6.868;2023-03-23T02:44:12;3.33;;;2.90;;
33074;SDS011;19433;51.292;6.868;2023-03-23T02:46:39;2.90;;;2.70;;
33074;SDS011;19433;51.292;6.868;2023-03-23T02:49:06;2.60;;;2.50;;
33074;SDS011;19433;51.292;6.868;2023-03-23T02:51:34;2.83;;;2.67;;
33074;SDS011;19433;51.292;6.868;2023-03-23T02:54:01;3.60;;;2.77;;
33074;SDS011;19433;51.292;6.868;2023-03-23T02:56:37;3.13;;;2.93;;
33074;SDS011;19433;51.292;6.868;2023-03-23T02:59:04;3.13;;;2.93;;
33074;SDS011;19433;51.292;6.868;2023-03-23T03:03:59;4.20;;;2.93;;
33074;SDS011;19433;51.292;6.868;2023-03-23T03:09:04;2.80;;;2.60;;
33074;SDS011;19433;51.292;6.868;2023-03-23T03:11:42;4.20;;;3.83;;
33074;SDS011;19433;51.292;6.868;2023-03-23T03:14:19;3.43;;;2.80;;
33074;SDS011;19433;51.292;6.868;2023-03-23T03:19:42;3.10;;;2.90;;
33074;SDS011;19433;51.292;6.868;2023-03-23T03:22:11;3.17;;;2.93;;
33074;SDS011;19433;51.292;6.868;2023-03-23T03:24:37;2.90;;;2.70;;
33074;SDS011;19433;51.292;6.868;2023-03-23T03:29:58;2.90;;;2.70;;
33074;SDS011;19433;51.292;6.868;2023-03-23T03:32:28;2.47;;;2.27;;
33074;SDS011;19433;51.292;6.868;2023-03-23T03:35:00;3.10;;;2.90;;
33074;SDS011;19433;51.292;6.868;2023-03-23T03:37:32;3.40;;;2.37;;
33074;SDS011;19433;51.292;6.868;2023-03-23T03:39:59;2.83;;;2.63;;
33074;SDS011;19433;51.292;6.868;2023-03-23T03:42:25;3.83;;;3.47;;
33074;SDS011;19433;51.292;6.868;2023-03-23T03:44:51;3.83;;;3.20;;
33074;SDS011;19433;51.292;6.868;2023-03-23T03:47:16;2.27;;;2.17;;
33074;SDS011;19433;51.292;6.868;2023-03-23T03:49:41;2.50;;;2.33;;
33074;SDS011;19433;51.292;6.868;2023-03-23T03:52:06;2.20;;;2.00;;
33074;SDS011;19433;51.292;6.868;2023-03-23T03:54:32;2.83;;;2.63;;
33074;SDS011;19433;51.292;6.868;2023-03-23T03:56:57;2.73;;;2.57;;
33074;SDS011;19433;51.292;6.868;2023-03-23T03:59:22;2.40;;;2.30;;
33074;SDS011;19433;51.292;6.868;2023-03-23T04:01:49;2.60;;;2.40;;
33074;SDS011;19433;51.292;6.868;2023-03-23T04:04:18;3.07;;;2.87;;
33074;SDS011;19433;51.292;6.868;2023-03-23T04:06:44;2.23;;;2.07;;
33074;SDS011;19433;51.292;6.868;2023-03-23T04:09:09;2.43;;;2.23;;
33074;SDS011;19433;51.292;6.868;2023-03-23T04:11:35;2.13;;;2.03;;
33074;SDS011;19433;51.292;6.868;2023-03-23T04:14:00;3.20;;;1.97;;
33074;SDS011;19433;51.292;6.868;2023-03-23T04:16:27;2.63;;;2.20;;
33074;SDS011;19433;51.292;6.868;2023-03-23T04:18:54;2.20;;;2.10;;
33074;SDS011;19433;51.292;6.868;2023-03-23T04:21:22;2.20;;;2.00;;
33074;SDS011;19433;51.292;6.868;2023-03-23T04:23:48;2.20;;;2.10;;
33074;SDS011;19433;51.292;6.868;2023-03-23T04:26:13;2.20;;;2.07;;
33074;SDS011;19433;51.292;6.868;2023-03-23T04:28:39;5.03;;;2.83;;
33074;SDS011;19433;51.292;6.868;2023-03-23T04:31:05;2.43;;;2.00;;
33074;SDS011;19433;51.292;6.868;2023-03-23T04:33:31;3.00;;;2.00;;
33074;SDS011;19433;51.292;6.868;2023-03-23T04:35:58;3.83;;;3.53;;
33074;SDS011;19433;51.292;6.868;2023-03-23T04:38:26;3.53;;;1.73;;
33074;SDS011;19433;51.292;6.868;2023-03-23T04:40:52;2.40;;;1.73;;
33074;SDS011;19433;51.292;6.868;2023-03-23T04:43:19;2.40;;;2.20;;
33074;SDS011;19433;51.292;6.868;2023-03-23T04:45:47;1.83;;;1.73;;
33074;SDS011;19433;51.292;6.868;2023-03-23T04:48:20;4.70;;;1.93;;
33074;SDS011;19433;51.292;6.868;2023-03-23T04:50:47;2.30;;;2.13;;
33074;SDS011;19433;51.292;6.868;2023-03-23T04:53:13;2.10;;;1.77;;
33074;SDS011;19433;51.292;6.868;2023-03-23T04:55:38;2.17;;;1.97;;
33074;SDS011;19433;51.292;6.868;2023-03-23T04:58:04;2.07;;;1.87;;
33074;SDS011;19433;51.292;6.868;2023-03-23T05:00:33;2.20;;;2.00;;
33074;SDS011;19433;51.292;6.868;2023-03-23T05:03:00;2.40;;;2.30;;
33074;SDS011;19433;51.292;6.868;2023-03-23T05:05:25;1.80;;;1.70;;
33074;SDS011;19433;51.292;6.868;2023-03-23T05:07:52;2.90;;;2.70;;
33074;SDS011;19433;51.292;6.868;2023-03-23T05:10:18;2.30;;;2.20;;
33074;SDS011;19433;51.292;6.868;2023-03-23T05:12:44;2.70;;;2.50;;
33074;SDS011;19433;51.292;6.868;2023-03-23T05:15:11;2.10;;;1.90;;
33074;SDS011;19433;51.292;6.868;2023-03-23T05:17:38;2.90;;;2.10;;
33074;SDS011;19433;51.292;6.868;2023-03-23T05:20:05;2.17;;;1.97;;
33074;SDS011;19433;51.292;6.868;2023-03-23T05:22:34;2.00;;;1.90;;
33074;SDS011;19433;51.292;6.868;2023-03-23T05:25:01;2.57;;;2.37;;
33074;SDS011;19433;51.292;6.868;2023-03-23T05:27:30;2.53;;;2.10;;
33074;SDS011;19433;51.292;6.868;2023-03-23T05:29:56;2.63;;;2.43;;
33074;SDS011;19433;51.292;6.868;2023-03-23T05:32:23;2.20;;;2.10;;
33074;SDS011;19433;51.292;6.868;2023-03-23T05:34:54;2.13;;;2.03;;
33074;SDS011;19433;51.292;6.868;2023-03-23T05:37:21;2.57;;;2.37;;
33074;SDS011;19433;51.292;6.868;2023-03-23T05:39:47;3.33;;;2.40;;
33074;SDS011;19433;51.292;6.868;2023-03-23T05:42:12;2.77;;;2.10;;
33074;SDS011;19433;51.292;6.868;2023-03-23T05:44:37;2.53;;;2.30;;
33074;SDS011;19433;51.292;6.868;2023-03-23T05:47:03;2.93;;;2.70;;
33074;SDS011;19433;51.292;6.868;2023-03-23T05:49:28;2.93;;;2.73;;
33074;SDS011;19433;51.292;6.868;2023-03-23T05:51:53;3.43;;;2.47;;
33074;SDS011;19433;51.292;6.868;2023-03-23T05:54:19;2.93;;;2.60;;
33074;SDS011;19433;51.292;6.868;2023-03-23T05:56:44;3.70;;;2.97;;
33074;SDS011;19433;51.292;6.868;2023-03-23T05:59:09;3.17;;;2.60;;
33074;SDS011;19433;51.292;6.868;2023-03-23T06:01:35;2.33;;;1.97;;
33074;SDS011;19433;51.292;6.868;2023-03-23T06:04:03;4.57;;;2.73;;
33074;SDS011;19433;51.292;6.868;2023-03-23T06:06:29;2.70;;;2.50;;
33074;SDS011;19433;51.292;6.868;2023-03-23T06:08:55;2.57;;;2.37;;
33074;SDS011;19433;51.292;6.868;2023-03-23T06:11:21;2.63;;;2.40;;
33074;SDS011;19433;51.292;6.868;2023-03-23T06:13:48;2.30;;;2.10;;
33074;SDS011;19433;51.292;6.868;2023-03-23T06:16:13;2.87;;;2.67;;
33074;SDS011;19433;51.292;6.868;2023-03-23T06:18:39;2.40;;;2.20;;
33074;SDS011;19433;51.292;6.868;2023-03-23T06:21:05;2.80;;;2.40;;
33074;SDS011;19433;51.292;6.868;2023-03-23T06:23:31;2.50;;;2.30;;
33074;SDS011;19433;51.292;6.868;2023-03-23T06:25:58;2.83;;;2.30;;
33074;SDS011;19433;51.292;6.868;2023-03-23T06:28:25;2.50;;;2.10;;
33074;SDS011;19433;51.292;6.868;2023-03-23T06:30:51;2.93;;;2.37;;
33074;SDS011;19433;51.292;6.868;2023-03-23T06:33:17;3.57;;;3.00;;
33074;SDS011;19433;51.292;6.868;2023-03-23T06:35:43;2.13;;;2.00;;
33074;SDS011;19433;51.292;6.868;2023-03-23T06:38:08;2.97;;;2.20;;
33074;SDS011;19433;51.292;6.868;2023-03-23T06:40:34;4.67;;;3.07;;
33074;SDS011;19433;51.292;6.868;2023-03-23T06:43:01;4.43;;;2.47;;
33074;SDS011;19433;51.292;6.868;2023-03-23T06:45:28;2.70;;;2.13;;
33074;SDS011;19433;51.292;6.868;2023-03-23T06:47:53;1.80;;;1.70;;
33074;SDS011;19433;51.292;6.868;2023-03-23T06:50:19;2.70;;;2.27;;
33074;SDS011;19433;51.292;6.868;2023-03-23T06:52:47;3.57;;;2.10;;
33074;SDS011;19433;51.292;6.868;2023-03-23T06:55:14;3.83;;;2.30;;
33074;SDS011;19433;51.292;6.868;2023-03-23T06:57:40;3.27;;;2.13;;
33074;SDS011;19433;51.292;6.868;2023-03-23T07:00:07;2.77;;;2.30;;
33074;SDS011;19433;51.292;6.868;2023-03-23T07:02:34;2.77;;;2.00;;
33074;SDS011;19433;51.292;6.868;2023-03-23T07:05:00;2.40;;;2.00;;
33074;SDS011;19433;51.292;6.868;2023-03-23T07:07:26;3.90;;;1.97;;
33074;SDS011;19433;51.292;6.868;2023-03-23T07:09:51;1.83;;;1.70;;
33074;SDS011;19433;51.292;6.868;2023-03-23T07:12:16;4.03;;;2.00;;
33074;SDS011;19433;51.292;6.868;2023-03-23T07:14:42;4.77;;;2.03;;
33074;SDS011;19433;51.292;6.868;2023-03-23T07:17:07;4.47;;;2.27;;
33074;SDS011;19433;51.292;6.868;2023-03-23T07:19:33;4.07;;;2.30;;
33074;SDS011;19433;51.292;6.868;2023-03-23T07:21:58;2.47;;;2.00;;
33074;SDS011;19433;51.292;6.868;2023-03-23T07:24:24;4.43;;;2.40;;
33074;SDS011;19433;51.292;6.868;2023-03-23T07:26:49;4.40;;;1.50;;
33074;SDS011;19433;51.292;6.868;2023-03-23T07:29:15;2.37;;;1.90;;
33074;SDS011;19433;51.292;6.868;2023-03-23T07:31:41;2.47;;;1.70;;
33074;SDS011;19433;51.292;6.868;2023-03-23T07:34:07;2.03;;;1.63;;
33074;SDS011;19433;51.292;6.868;2023-03-23T07:36:33;2.03;;;1.93;;
33074;SDS011;19433;51.292;6.868;2023-03-23T07:39:02;5.03;;;2.00;;
33074;SDS011;19433;51.292;6.868;2023-03-23T07:41:27;3.27;;;1.70;;
33074;SDS011;19433;51.292;6.868;2023-03-23T07:43:53;2.20;;;2.00;;
33074;SDS011;19433;51.292;6.868;2023-03-23T07:46:18;3.53;;;1.70;;
33074;SDS011;19433;51.292;6.868;2023-03-23T07:48:44;2.63;;;1.60;;
33074;SDS011;19433;51.292;6.868;2023-03-23T07:51:09;3.07;;;2.17;;
33074;SDS011;19433;51.292;6.868;2023-03-23T07:53:34;4.10;;;1.70;;
33074;SDS011;19433;51.292;6.868;2023-03-23T07:56:00;2.87;;;1.77;;
33074;SDS011;19433;51.292;6.868;2023-03-23T07:58:26;3.70;;;2.50;;
33074;SDS011;19433;51.292;6.868;2023-03-23T08:00:53;2.13;;;1.93;;
33074;SDS011;19433;51.292;6.868;2023-03-23T08:03:19;2.77;;;2.00;;
33074;SDS011;19433;51.292;6.868;2023-03-23T08:05:44;3.63;;;2.50;;
33074;SDS011;19433;51.292;6.868;2023-03-23T08:08:09;4.60;;;2.13;;
33074;SDS011;19433;51.292;6.868;2023-03-23T08:10:35;3.73;;;2.00;;
33074;SDS011;19433;51.292;6.868;2023-03-23T08:13:00;2.07;;;1.90;;
33074;SDS011;19433;51.292;6.868;2023-03-23T08:15:27;1.87;;;1.60;;
33074;SDS011;19433;51.292;6.868;2023-03-23T08:17:53;2.70;;;2.07;;
33074;SDS011;19433;51.292;6.868;2023-03-23T08:20:19;5.20;;;2.20;;
33074;SDS011;19433;51.292;6.868;2023-03-23T08:22:48;5.10;;;2.40;;
33074;SDS011;19433;51.292;6.868;2023-03-23T08:25:15;4.37;;;2.17;;
33074;SDS011;19433;51.292;6.868;2023-03-23T08:27:42;3.00;;;2.47;;
33074;SDS011;19433;51.292;6.868;2023-03-23T08:30:08;3.97;;;1.70;;
33074;SDS011;19433;51.292;6.868;2023-03-23T08:32:35;2.30;;;1.43;;
33074;SDS011;19433;51.292;6.868;2023-03-23T08:35:01;3.33;;;1.63;;
33074;SDS011;19433;51.292;6.868;2023-03-23T08:37:27;3.40;;;1.70;;
33074;SDS011;19433;51.292;6.868;2023-03-23T08:39:53;4.93;;;2.00;;
33074;SDS011;19433;51.292;6.868;2023-03-23T08:42:20;5.60;;;1.70;;
33074;SDS011;19433;51.292;6.868;2023-03-23T08:44:45;6.43;;;1.43;;
33074;SDS011;19433;51.292;6.868;2023-03-23T08:47:10;2.30;;;1.77;;
33074;SDS011;19433;51.292;6.868;2023-03-23T08:49:36;4.40;;;2.63;;
33074;SDS011;19433;51.292;6.868;2023-03-23T08:52:01;3.30;;;1.40;;
33074;SDS011;19433;51.292;6.868;2023-03-23T08:54:28;2.93;;;1.70;;
33074;SDS011;19433;51.292;6.868;2023-03-23T08:56:55;3.20;;;1.90;;
33074;SDS011;19433;51.292;6.868;2023-03-23T08:59:23;2.83;;;1.60;;
33074;SDS011;19433;51.292;6.868;2023-03-23T09:01:50;4.30;;;2.03;;
33074;SDS011;19433;51.292;6.868;2023-03-23T09:04:15;1.90;;;1.63;;
33074;SDS011;19433;51.292;6.868;2023-03-23T09:06:40;2.73;;;1.87;;
33074;SDS011;19433;51.292;6.868;2023-03-23T09:09:06;3.20;;;1.97;;
33074;SDS011;19433;51.292;6.868;2023-03-23T09:11:32;2.20;;;1.47;;
33074;SDS011;19433;51.292;6.868;2023-03-23T09:13:58;2.40;;;2.10;;
33074;SDS011;19433;51.292;6.868;2023-03-23T09:16:24;3.43;;;2.00;;
33074;SDS011;19433;51.292;6.868;2023-03-23T09:18:50;2.03;;;1.77;;
33074;SDS011;19433;51.292;6.868;2023-03-23T09:21:15;4.73;;;2.00;;
33074;SDS011;19433;51.292;6.868;2023-03-23T09:23:41;4.33;;;1.70;;
33074;SDS011;19433;51.292;6.868;2023-03-23T09:26:09;3.60;;;2.00;;
33074;SDS011;19433;51.292;6.868;2023-03-23T09:28:34;5.97;;;2.10;;
33074;SDS011;19433;51.292;6.868;2023-03-23T09:31:00;4.07;;;1.67;;
33074;SDS011;19433;51.292;6.868;2023-03-23T09:33:25;5.33;;;2.10;;
33074;SDS011;19433;51.292;6.868;2023-03-23T09:35:52;7.00;;;2.30;;
33074;SDS011;19433;51.292;6.868;2023-03-23T09:38:17;3.07;;;1.60;;
33074;SDS011;19433;51.292;6.868;2023-03-23T09:40:45;6.20;;;2.20;;
33074;SDS011;19433;51.292;6.868;2023-03-23T09:43:22;5.70;;;2.47;;
33074;SDS011;19433;51.292;6.868;2023-03-23T09:45:59;6.67;;;2.07;;
33074;SDS011;19433;51.292;6.868;2023-03-23T09:51:22;2.20;;;1.63;;
33074;SDS011;19433;51.292;6.868;2023-03-23T09:53:51;6.80;;;2.17;;
33074;SDS011;19433;51.292;6.868;2023-03-23T09:56:20;2.87;;;1.80;;
33074;SDS011;19433;51.292;6.868;2023-03-23T09:59:22;6.40;;;2.13;;
33074;SDS011;19433;51.292;6.868;2023-03-23T10:01:48;2.60;;;1.00;;
33074;SDS011;19433;51.292;6.868;2023-03-23T10:07:12;2.90;;;1.10;;
33074;SDS011;19433;51.292;6.868;2023-03-23T10:09:43;2.40;;;1.63;;
33074;SDS011;19433;51.292;6.868;2023-03-23T10:15:02;3.53;;;1.07;;
33074;SDS011;19433;51.292;6.868;2023-03-23T10:17:37;1.87;;;1.30;;
33074;SDS011;19433;51.292;6.868;2023-03-23T10:22:41;2.10;;;1.47;;
33074;SDS011;19433;51.292;6.868;2023-03-23T10:27:54;1.67;;;1.57;;
33074;SDS011;19433;51.292;6.868;2023-03-23T10:30:27;5.47;;;2.97;;
33074;SDS011;19433;51.292;6.868;2023-03-23T10:33:00;2.53;;;1.13;;
33074;SDS011;19433;51.292;6.868;2023-03-23T10:35:44;9.27;;;1.30;;
33074;SDS011;19433;51.292;6.868;2023-03-23T10:38:16;4.03;;;1.43;;
33074;SDS011;19433;51.292;6.868;2023-03-23T10:40:50;3.57;;;1.20;;
33074;SDS011;19433;51.292;6.868;2023-03-23T10:43:20;2.00;;;1.30;;
33074;SDS011;19433;51.292;6.868;2023-03-23T10:45:47;2.60;;;1.30;;
33074;SDS011;19433;51.292;6.868;2023-03-23T10:48:25;3.43;;;2.10;;
33074;SDS011;19433;51.292;6.868;2023-03-23T10:50:56;1.80;;;1.27;;
33074;SDS011;19433;51.292;6.868;2023-03-23T10:53:38;5.13;;;1.33;;
33074;SDS011;19433;51.292;6.868;2023-03-23T10:56:18;4.00;;;1.40;;
33074;SDS011;19433;51.292;6.868;2023-03-23T10:58:47;5.80;;;1.40;;
33074;SDS011;19433;51.292;6.868;2023-03-23T11:01:12;4.00;;;1.50;;
33074;SDS011;19433;51.292;6.868;2023-03-23T11:06:09;3.63;;;1.63;;
33074;SDS011;19433;51.292;6.868;2023-03-23T11:08:55;3.47;;;1.60;;
33074;SDS011;19433;51.292;6.868;2023-03-23T11:11:31;3.23;;;1.40;;
33074;SDS011;19433;51.292;6.868;2023-03-23T11:14:02;1.50;;;1.40;;
33074;SDS011;19433;51.292;6.868;2023-03-23T11:17:00;3.33;;;1.17;;
33074;SDS011;19433;51.292;6.868;2023-03-23T11:19:28;2.83;;;1.87;;
33074;SDS011;19433;51.292;6.868;2023-03-23T11:24:31;2.73;;;1.33;;
33074;SDS011;19433;51.292;6.868;2023-03-23T11:27:02;1.67;;;1.43;;
33074;SDS011;19433;51.292;6.868;2023-03-23T11:29:31;1.87;;;1.23;;
33074;SDS011;19433;51.292;6.868;2023-03-23T11:34:24;2.20;;;1.87;;
33074;SDS011;19433;51.292;6.868;2023-03-23T11:36:57;3.80;;;1.70;;
33074;SDS011;19433;51.292;6.868;2023-03-23T11:39:31;2.00;;;1.50;;
33074;SDS011;19433;51.292;6.868;2023-03-23T11:41:59;6.67;;;1.63;;
33074;SDS011;19433;51.292;6.868;2023-03-23T11:44:33;2.73;;;1.90;;
33074;SDS011;19433;51.292;6.868;2023-03-23T11:49:57;2.00;;;1.17;;
33074;SDS011;19433;51.292;6.868;2023-03-23T11:52:46;3.10;;;1.30;;
33074;SDS011;19433;51.292;6.868;2023-03-23T11:55:22;3.27;;;1.77;;
33074;SDS011;19433;51.292;6.868;2023-03-23T11:57:51;2.90;;;1.70;;
33074;SDS011;19433;51.292;6.868;2023-03-23T12:00:20;1.70;;;1.60;;
33074;SDS011;19433;51.292;6.868;2023-03-23T12:05:43;1.90;;;1.30;;
33074;SDS011;19433;51.292;6.868;2023-03-23T12:10:58;1.60;;;1.50;;
33074;SDS011;19433;51.292;6.868;2023-03-23T12:13:54;3.77;;;1.90;;
33074;SDS011;19433;51.292;6.868;2023-03-23T12:16:41;5.90;;;1.80;;
33074;SDS011;19433;51.292;6.868;2023-03-23T12:19:30;2.33;;;1.90;;
33074;SDS011;19433;51.292;6.868;2023-03-23T12:22:19;2.80;;;1.97;;
33074;SDS011;19433;51.292;6.868;2023-03-23T12:33:53;3.60;;;2.60;;
33074;SDS011;19433;51.292;6.868;2023-03-23T12:39:31;3.43;;;3.13;;
33074;SDS011;19433;51.292;6.868;2023-03-23T12:45:40;3.93;;;3.63;;
33074;SDS011;19433;51.292;6.868;2023-03-23T12:48:16;3.13;;;2.93;;
33074;SDS011;19433;51.292;6.868;2023-03-23T12:53:28;4.43;;;4.00;;
33074;SDS011;19433;51.292;6.868;2023-03-23T12:56:05;3.90;;;3.60;;
33074;SDS011;19433;51.292;6.868;2023-03-23T12:58:44;4.93;;;4.47;;
33074;SDS011;19433;51.292;6.868;2023-03-23T13:01:12;4.90;;;4.57;;
33074;SDS011;19433;51.292;6.868;2023-03-23T13:03:46;7.10;;;4.60;;
33074;SDS011;19433;51.292;6.868;2023-03-23T13:06:35;4.37;;;4.07;;
33074;SDS011;19433;51.292;6.868;2023-03-23T13:11:47;4.70;;;4.30;;
33074;SDS011;19433;51.292;6.868;2023-03-23T13:14:21;5.43;;;4.93;;
33074;SDS011;19433;51.292;6.868;2023-03-23T13:26:08;2.03;;;1.83;;
33074;SDS011;19433;51.292;6.868;2023-03-23T13:31:14;2.33;;;2.17;;
33074;SDS011;19433;51.292;6.868;2023-03-23T13:33:46;4.83;;;3.00;;
33074;SDS011;19433;51.292;6.868;2023-03-23T13:36:14;2.80;;;2.60;;
33074;SDS011;19433;51.292;6.868;2023-03-23T13:38:47;3.10;;;2.80;;
33074;SDS011;19433;51.292;6.868;2023-03-23T13:41:16;3.13;;;2.93;;
33074;SDS011;19433;51.292;6.868;2023-03-23T13:43:43;3.73;;;3.53;;
33074;SDS011;19433;51.292;6.868;2023-03-23T13:46:26;3.63;;;3.33;;
33074;SDS011;19433;51.292;6.868;2023-03-23T13:49:04;4.10;;;3.80;;
33074;SDS011;19433;51.292;6.868;2023-03-23T14:01:55;5.03;;;4.63;;
33074;SDS011;19433;51.292;6.868;2023-03-23T14:04:40;5.90;;;4.60;;
33074;SDS011;19433;51.292;6.868;2023-03-23T14:07:10;5.33;;;4.70;;
33074;SDS011;19433;51.292;6.868;2023-03-23T14:09:37;7.60;;;4.97;;
33074;SDS011;19433;51.292;6.868;2023-03-23T14:12:05;5.83;;;5.33;;
33074;SDS011;19433;51.292;6.868;2023-03-23T14:14:42;6.27;;;5.67;;
33074;SDS011;19433;51.292;6.868;2023-03-23T14:19:41;8.70;;;6.77;;
33074;SDS011;19433;51.292;6.868;2023-03-23T14:22:33;7.97;;;7.17;;
33074;SDS011;19433;51.292;6.868;2023-03-23T14:25:10;7.03;;;6.43;;
33074;SDS011;19433;51.292;6.868;2023-03-23T14:27:38;6.00;;;5.50;;
33074;SDS011;19433;51.292;6.868;2023-03-23T14:30:08;5.27;;;4.73;;
33074;SDS011;19433;51.292;6.868;2023-03-23T14:32:39;7.40;;;5.33;;
33074;SDS011;19433;51.292;6.868;2023-03-23T14:35:06;5.80;;;4.90;;
33074;SDS011;19433;51.292;6.868;2023-03-23T14:37:37;5.73;;;5.17;;
33074;SDS011;19433;51.292;6.868;2023-03-23T14:40:03;6.37;;;4.77;;
33074;SDS011;19433;51.292;6.868;2023-03-23T14:42:31;4.50;;;4.10;;
33074;SDS011;19433;51.292;6.868;2023-03-23T14:44:59;3.33;;;3.03;;
33074;SDS011;19433;51.292;6.868;2023-03-23T14:47:46;3.40;;;2.77;;
33074;SDS011;19433;51.292;6.868;2023-03-23T14:52:59;3.87;;;2.40;;
33074;SDS011;19433;51.292;6.868;2023-03-23T14:55:27;3.50;;;2.10;;
33074;SDS011;19433;51.292;6.868;2023-03-23T14:57:55;4.80;;;2.33;;
33074;SDS011;19433;51.292;6.868;2023-03-23T15:00:31;5.20;;;2.53;;
33074;SDS011;19433;51.292;6.868;2023-03-23T15:02:59;3.80;;;2.20;;
33074;SDS011;19433;51.292;6.868;2023-03-23T15:05:35;2.53;;;2.33;;
33074;SDS011;19433;51.292;6.868;2023-03-23T15:08:05;4.70;;;3.00;;
33074;SDS011;19433;51.292;6.868;2023-03-23T15:10:32;5.10;;;3.70;;
33074;SDS011;19433;51.292;6.868;2023-03-23T15:12:58;3.63;;;2.80;;
33074;SDS011;19433;51.292;6.868;2023-03-23T15:15:25;3.63;;;2.00;;
33074;SDS011;19433;51.292;6.868;2023-03-23T15:17:51;4.43;;;2.93;;
33074;SDS011;19433;51.292;6.868;2023-03-23T15:20:24;4.33;;;2.57;;
33074;SDS011;19433;51.292;6.868;2023-03-23T15:23:07;4.27;;;2.70;;
33074;SDS011;19433;51.292;6.868;2023-03-23T15:25:40;3.63;;;2.23;;
33074;SDS011;19433;51.292;6.868;2023-03-23T15:28:17;5.83;;;2.37;;
33074;SDS011;19433;51.292;6.868;2023-03-23T15:30:51;4.27;;;2.53;;
33074;SDS011;19433;51.292;6.868;2023-03-23T15:33:18;4.47;;;2.87;;
33074;SDS011;19433;51.292;6.868;2023-03-23T15:35:51;2.70;;;2.00;;
33074;SDS011;19433;51.292;6.868;2023-03-23T15:38:19;7.07;;;1.93;;
33074;SDS011;19433;51.292;6.868;2023-03-23T15:40:51;4.50;;;2.37;;
33074;SDS011;19433;51.292;6.868;2023-03-23T15:43:22;4.17;;;1.70;;
33074;SDS011;19433;51.292;6.868;2023-03-23T15:48:29;4.47;;;2.43;;
33074;SDS011;19433;51.292;6.868;2023-03-23T15:50:56;3.10;;;2.40;;
33074;SDS011;19433;51.292;6.868;2023-03-23T15:53:27;3.57;;;2.80;;
33074;SDS011;19433;51.292;6.868;2023-03-23T15:55:55;2.90;;;1.70;;
33074;SDS011;19433;51.292;6.868;2023-03-23T15:58:20;6.23;;;2.53;;
33074;SDS011;19433;51.292;6.868;2023-03-23T16:00:46;5.97;;;2.63;;
33074;SDS011;19433;51.292;6.868;2023-03-23T16:03:18;3.53;;;2.53;;
33074;SDS011;19433;51.292;6.868;2023-03-23T16:05:49;4.23;;;2.60;;
33074;SDS011;19433;51.292;6.868;2023-03-23T16:08:14;4.27;;;2.70;;
33074;SDS011;19433;51.292;6.868;2023-03-23T16:10:40;3.77;;;2.17;;
33074;SDS011;19433;51.292;6.868;2023-03-23T16:13:06;4.70;;;2.90;;
33074;SDS011;19433;51.292;6.868;2023-03-23T16:15:31;6.00;;;2.90;;
33074;SDS011;19433;51.292;6.868;2023-03-23T16:17:57;3.40;;;2.40;;
33074;SDS011;19433;51.292;6.868;2023-03-23T16:20:23;5.17;;;3.00;;
33074;SDS011;19433;51.292;6.868;2023-03-23T16:22:49;4.33;;;2.53;;
33074;SDS011;19433;51.292;6.868;2023-03-23T16:25:16;4.00;;;2.97;;
33074;SDS011;19433;51.292;6.868;2023-03-23T16:27:42;4.67;;;2.73;;
33074;SDS011;19433;51.292;6.868;2023-03-23T16:30:12;5.97;;;2.90;;
33074;SDS011;19433;51.292;6.868;2023-03-23T16:32:40;7.30;;;2.90;;
33074;SDS011;19433;51.292;6.868;2023-03-23T16:35:06;5.27;;;2.93;;
33074;SDS011;19433;51.292;6.868;2023-03-23T16:37:32;2.77;;;2.23;;
33074;SDS011;19433;51.292;6.868;2023-03-23T16:39:58;4.80;;;2.50;;
33074;SDS011;19433;51.292;6.868;2023-03-23T16:42:24;5.97;;;2.90;;
33074;SDS011;19433;51.292;6.868;2023-03-23T16:44:49;6.00;;;2.57;;
33074;SDS011;19433;51.292;6.868;2023-03-23T16:47:15;5.90;;;2.30;;
33074;SDS011;19433;51.292;6.868;2023-03-23T16:49:42;3.27;;;2.10;;
33074;SDS011;19433;51.292;6.868;2023-03-23T16:52:08;5.03;;;2.50;;
33074;SDS011;19433;51.292;6.868;2023-03-23T16:54:33;4.00;;;2.57;;